sensor_id;sensor_type;location;lat;lon;timestamp;pressure;altitude;pressure_sealevel;temperature;humidity
45129;BME280;35512;56.312;101.728;2023-04-04T00:01:19;96640.50;;;-2.59;61.72
45129;BME280;35512;56.312;101.728;2023-04-04T00:03:49;96659.50;;;-2.51;61.92
45129;BME280;35512;56.312;101.728;2023-04-04T00:06:20;96658.19;;;-2.54;62.44
45129;BME280;35512;56.312;101.728;2023-04-04T00:08:48;96661.38;;;-2.57;62.66
45129;BME280;35512;56.312;101.728;2023-04-04T00:11:17;96677.72;;;-2.50;62.76
45129;BME280;35512;56.312;101.728;2023-04-04T00:13:47;96666.09;;;-2.49;63.06
45129;BME280;35512;56.312;101.728;2023-04-04T00:16:15;96671.09;;;-2.42;62.91
45129;BME280;35512;56.312;101.728;2023-04-04T00:18:44;96668.16;;;-2.35;63.26
45129;BME280;35512;56.312;101.728;2023-04-04T00:21:13;96653.53;;;-2.28;63.31
45129;BME280;35512;56.312;101.728;2023-04-04T00:23:42;96660.66;;;-2.18;63.14
45129;BME280;35512;56.312;101.728;2023-04-04T00:26:10;96672.28;;;-2.14;63.56
45129;BME280;35512;56.312;101.728;2023-04-04T00:28:40;96663.78;;;-2.11;63.22
45129;BME280;35512;56.312;101.728;2023-04-04T00:31:09;96662.94;;;-2.06;63.42
45129;BME280;35512;56.312;101.728;2023-04-04T00:33:37;96652.09;;;-2.05;63.79
45129;BME280;35512;56.312;101.728;2023-04-04T00:36:06;96657.38;;;-2.05;64.11
45129;BME280;35512;56.312;101.728;2023-04-04T00:38:36;96650.25;;;-2.04;64.38
45129;BME280;35512;56.312;101.728;2023-04-04T00:41:05;96648.06;;;-1.97;64.41
45129;BME280;35512;56.312;101.728;2023-04-04T00:43:34;96652.56;;;-1.92;64.27
45129;BME280;35512;56.312;101.728;2023-04-04T00:46:03;96639.81;;;-1.90;64.67
45129;BME280;35512;56.312;101.728;2023-04-04T00:48:33;96645.75;;;-1.69;64.14
45129;BME280;35512;56.312;101.728;2023-04-04T00:51:01;96644.81;;;-1.54;64.31
45129;BME280;35512;56.312;101.728;2023-04-04T00:53:30;96642.09;;;-1.44;63.84
45129;BME280;35512;56.312;101.728;2023-04-04T00:55:59;96655.00;;;-1.37;63.75
45129;BME280;35512;56.312;101.728;2023-04-04T00:58:29;96650.16;;;-1.30;63.51
45129;BME280;35512;56.312;101.728;2023-04-04T01:00:59;96644.88;;;-1.30;63.92
45129;BME280;35512;56.312;101.728;2023-04-04T01:03:30;96644.81;;;-1.25;63.13
45129;BME280;35512;56.312;101.728;2023-04-04T01:06:00;96638.91;;;-1.16;63.55
45129;BME280;35512;56.312;101.728;2023-04-04T01:08:30;96642.25;;;-1.06;63.39
45129;BME280;35512;56.312;101.728;2023-04-04T01:10:59;96645.59;;;-0.95;63.07
45129;BME280;35512;56.312;101.728;2023-04-04T01:13:28;96632.56;;;-0.91;63.36
45129;BME280;35512;56.312;101.728;2023-04-04T01:15:59;96633.63;;;-0.92;63.15
45129;BME280;35512;56.312;101.728;2023-04-04T01:18:30;96634.69;;;-0.93;62.84
45129;BME280;35512;56.312;101.728;2023-04-04T01:21:04;96625.69;;;-0.92;62.54
45129;BME280;35512;56.312;101.728;2023-04-04T01:23:59;96640.44;;;-0.86;62.33
45129;BME280;35512;56.312;101.728;2023-04-04T01:26:46;96635.09;;;-0.81;62.41
45129;BME280;35512;56.312;101.728;2023-04-04T01:29:14;96644.63;;;-0.80;62.88
45129;BME280;35512;56.312;101.728;2023-04-04T01:32:03;96634.50;;;-0.78;62.49
45129;BME280;35512;56.312;101.728;2023-04-04T01:39:55;96634.78;;;-0.55;62.43
45129;BME280;35512;56.312;101.728;2023-04-04T01:42:29;96635.38;;;-0.39;61.31
45129;BME280;35512;56.312;101.728;2023-04-04T01:44:58;96645.84;;;-0.29;61.45
45129;BME280;35512;56.312;101.728;2023-04-04T01:47:39;96629.38;;;-0.26;61.10
45129;BME280;35512;56.312;101.728;2023-04-04T01:50:15;96635.94;;;-0.23;60.30
45129;BME280;35512;56.312;101.728;2023-04-04T01:52:44;96639.47;;;-0.28;60.60
45129;BME280;35512;56.312;101.728;2023-04-04T01:55:13;96635.94;;;-0.23;60.22
45129;BME280;35512;56.312;101.728;2023-04-04T01:57:42;96616.53;;;-0.19;60.39
45129;BME280;35512;56.312;101.728;2023-04-04T02:00:11;96628.50;;;-0.21;60.64
45129;BME280;35512;56.312;101.728;2023-04-04T02:02:44;96626.63;;;-0.21;59.80
45129;BME280;35512;56.312;101.728;2023-04-04T02:05:13;96619.53;;;-0.25;59.93
45129;BME280;35512;56.312;101.728;2023-04-04T02:07:47;96626.34;;;-0.19;60.30
45129;BME280;35512;56.312;101.728;2023-04-04T02:10:26;96623.72;;;-0.19;59.60
45129;BME280;35512;56.312;101.728;2023-04-04T02:12:57;96644.34;;;-0.16;60.31
45129;BME280;35512;56.312;101.728;2023-04-04T02:15:27;96616.75;;;-0.15;60.47
45129;BME280;35512;56.312;101.728;2023-04-04T02:17:55;96626.06;;;-0.18;60.17
45129;BME280;35512;56.312;101.728;2023-04-04T02:20:28;96632.28;;;-0.27;59.99
45129;BME280;35512;56.312;101.728;2023-04-04T02:22:57;96624.06;;;-0.26;60.07
45129;BME280;35512;56.312;101.728;2023-04-04T02:25:25;96631.38;;;-0.18;60.53
45129;BME280;35512;56.312;101.728;2023-04-04T02:27:55;96630.09;;;-0.20;59.97
45129;BME280;35512;56.312;101.728;2023-04-04T02:30:24;96622.13;;;-0.20;60.26
45129;BME280;35512;56.312;101.728;2023-04-04T02:32:56;96621.59;;;-0.22;60.39
45129;BME280;35512;56.312;101.728;2023-04-04T02:35:27;96625.63;;;-0.25;59.97
45129;BME280;35512;56.312;101.728;2023-04-04T02:37:56;96608.13;;;-0.26;59.62
45129;BME280;35512;56.312;101.728;2023-04-04T02:40:36;96618.75;;;-0.26;60.18
45129;BME280;35512;56.312;101.728;2023-04-04T02:43:07;96614.44;;;-0.22;60.31
45129;BME280;35512;56.312;101.728;2023-04-04T02:45:37;96608.50;;;-0.13;59.74
45129;BME280;35512;56.312;101.728;2023-04-04T02:48:19;96608.31;;;-0.03;59.51
45129;BME280;35512;56.312;101.728;2023-04-04T02:50:51;96603.22;;;0.01;58.91
45129;BME280;35512;56.312;101.728;2023-04-04T02:53:20;96618.16;;;-0.04;59.30
45129;BME280;35512;56.312;101.728;2023-04-04T02:55:52;96616.88;;;-0.06;59.52
45129;BME280;35512;56.312;101.728;2023-04-04T02:58:21;96618.94;;;-0.03;58.96
45129;BME280;35512;56.312;101.728;2023-04-04T03:00:53;96603.53;;;-0.01;58.80
45129;BME280;35512;56.312;101.728;2023-04-04T03:03:29;96606.84;;;-0.09;58.79
45129;BME280;35512;56.312;101.728;2023-04-04T03:05:59;96610.78;;;-0.07;58.78
45129;BME280;35512;56.312;101.728;2023-04-04T03:08:28;96623.06;;;-0.11;59.19
45129;BME280;35512;56.312;101.728;2023-04-04T03:10:59;96625.97;;;-0.12;59.45
45129;BME280;35512;56.312;101.728;2023-04-04T03:13:27;96589.97;;;-0.19;59.13
45129;BME280;35512;56.312;101.728;2023-04-04T03:16:01;96609.91;;;-0.02;59.00
45129;BME280;35512;56.312;101.728;2023-04-04T03:18:42;96593.69;;;-0.01;58.57
45129;BME280;35512;56.312;101.728;2023-04-04T03:21:12;96607.97;;;0.04;59.10
45129;BME280;35512;56.312;101.728;2023-04-04T03:23:41;96610.25;;;0.10;58.88
45129;BME280;35512;56.312;101.728;2023-04-04T03:26:10;96603.97;;;0.20;58.58
45129;BME280;35512;56.312;101.728;2023-04-04T03:28:39;96594.78;;;0.31;58.92
45129;BME280;35512;56.312;101.728;2023-04-04T03:31:10;96650.25;;;0.52;58.40
45129;BME280;35512;56.312;101.728;2023-04-04T03:33:42;96624.66;;;0.56;57.91
45129;BME280;35512;56.312;101.728;2023-04-04T03:36:15;96610.50;;;0.75;57.92
45129;BME280;35512;56.312;101.728;2023-04-04T03:38:48;96609.81;;;0.83;57.82
45129;BME280;35512;56.312;101.728;2023-04-04T03:41:16;96619.69;;;0.82;57.08
45129;BME280;35512;56.312;101.728;2023-04-04T03:43:45;96612.97;;;0.71;57.29
45129;BME280;35512;56.312;101.728;2023-04-04T03:46:15;96611.78;;;0.63;57.62
45129;BME280;35512;56.312;101.728;2023-04-04T03:48:46;96608.03;;;0.64;58.04
45129;BME280;35512;56.312;101.728;2023-04-04T03:51:24;96599.84;;;0.61;57.91
45129;BME280;35512;56.312;101.728;2023-04-04T03:53:53;96618.47;;;0.61;57.25
45129;BME280;35512;56.312;101.728;2023-04-04T03:56:22;96618.84;;;0.54;57.15
45129;BME280;35512;56.312;101.728;2023-04-04T03:58:51;96609.94;;;0.45;57.70
45129;BME280;35512;56.312;101.728;2023-04-04T04:01:24;96602.16;;;0.35;57.51
45129;BME280;35512;56.312;101.728;2023-04-04T04:03:54;96598.00;;;0.28;57.98
45129;BME280;35512;56.312;101.728;2023-04-04T04:06:23;96602.78;;;0.12;58.29
45129;BME280;35512;56.312;101.728;2023-04-04T04:08:52;96597.97;;;0.14;58.54
45129;BME280;35512;56.312;101.728;2023-04-04T04:11:20;96600.84;;;0.18;58.27
45129;BME280;35512;56.312;101.728;2023-04-04T04:13:49;96597.09;;;0.19;59.17
45129;BME280;35512;56.312;101.728;2023-04-04T04:16:18;96600.28;;;0.35;58.71
45129;BME280;35512;56.312;101.728;2023-04-04T04:18:48;96593.22;;;0.44;58.93
45129;BME280;35512;56.312;101.728;2023-04-04T04:21:26;96590.19;;;0.51;58.26
45129;BME280;35512;56.312;101.728;2023-04-04T04:23:55;96593.94;;;0.64;58.62
45129;BME280;35512;56.312;101.728;2023-04-04T04:26:24;96576.44;;;0.63;58.42
45129;BME280;35512;56.312;101.728;2023-04-04T04:28:53;96584.09;;;0.50;58.30
45129;BME280;35512;56.312;101.728;2023-04-04T04:31:29;96576.91;;;0.51;58.88
45129;BME280;35512;56.312;101.728;2023-04-04T04:33:59;96579.47;;;0.56;58.61
45129;BME280;35512;56.312;101.728;2023-04-04T04:36:31;96571.13;;;0.63;59.03
45129;BME280;35512;56.312;101.728;2023-04-04T04:39:12;96578.31;;;0.76;58.32
45129;BME280;35512;56.312;101.728;2023-04-04T04:41:52;96565.72;;;0.82;58.31
45129;BME280;35512;56.312;101.728;2023-04-04T04:44:23;96568.09;;;0.83;58.56
45129;BME280;35512;56.312;101.728;2023-04-04T04:46:53;96550.47;;;0.74;58.22
45129;BME280;35512;56.312;101.728;2023-04-04T04:49:23;96557.16;;;0.71;58.76
45129;BME280;35512;56.312;101.728;2023-04-04T04:51:53;96566.97;;;0.71;58.54
45129;BME280;35512;56.312;101.728;2023-04-04T04:54:22;96546.31;;;0.67;58.40
45129;BME280;35512;56.312;101.728;2023-04-04T04:56:54;96571.59;;;0.65;58.22
45129;BME280;35512;56.312;101.728;2023-04-04T04:59:23;96564.03;;;0.72;58.25
45129;BME280;35512;56.312;101.728;2023-04-04T05:01:54;96566.97;;;0.57;58.19
45129;BME280;35512;56.312;101.728;2023-04-04T05:04:25;96556.34;;;0.57;59.21
45129;BME280;35512;56.312;101.728;2023-04-04T05:07:00;96570.59;;;0.47;58.87
45129;BME280;35512;56.312;101.728;2023-04-04T05:09:30;96562.50;;;0.38;58.98
45129;BME280;35512;56.312;101.728;2023-04-04T05:11:59;96565.75;;;0.35;59.51
45129;BME280;35512;56.312;101.728;2023-04-04T05:14:37;96567.72;;;0.43;59.73
45129;BME280;35512;56.312;101.728;2023-04-04T05:17:06;96568.03;;;0.56;60.18
45129;BME280;35512;56.312;101.728;2023-04-04T05:19:35;96555.38;;;0.80;59.73
45129;BME280;35512;56.312;101.728;2023-04-04T05:22:05;96557.44;;;0.97;59.13
45129;BME280;35512;56.312;101.728;2023-04-04T05:24:44;96534.88;;;1.09;59.22
45129;BME280;35512;56.312;101.728;2023-04-04T05:27:16;96548.25;;;1.31;58.69
45129;BME280;35512;56.312;101.728;2023-04-04T05:29:51;96548.28;;;1.54;58.88
45129;BME280;35512;56.312;101.728;2023-04-04T05:32:22;96538.06;;;1.70;58.16
45129;BME280;35512;56.312;101.728;2023-04-04T05:35:03;96546.34;;;2.14;58.04
45129;BME280;35512;56.312;101.728;2023-04-04T05:37:38;96553.84;;;2.34;56.79
45129;BME280;35512;56.312;101.728;2023-04-04T05:40:11;96536.50;;;2.14;56.59
45129;BME280;35512;56.312;101.728;2023-04-04T05:42:42;96545.81;;;2.03;56.82
45129;BME280;35512;56.312;101.728;2023-04-04T05:45:12;96549.41;;;1.98;57.14
45129;BME280;35512;56.312;101.728;2023-04-04T05:47:42;96546.97;;;2.11;57.21
45129;BME280;35512;56.312;101.728;2023-04-04T05:50:14;96552.44;;;2.37;56.87
45129;BME280;35512;56.312;101.728;2023-04-04T05:52:45;96543.19;;;2.34;56.21
45129;BME280;35512;56.312;101.728;2023-04-04T05:55:14;96540.78;;;2.24;56.39
45129;BME280;35512;56.312;101.728;2023-04-04T05:57:47;96545.81;;;2.26;56.04
45129;BME280;35512;56.312;101.728;2023-04-04T06:00:22;96543.81;;;2.31;55.49
45129;BME280;35512;56.312;101.728;2023-04-04T06:03:03;96548.88;;;2.10;55.91
45129;BME280;35512;56.312;101.728;2023-04-04T06:05:32;96541.00;;;2.05;56.04
45129;BME280;35512;56.312;101.728;2023-04-04T06:08:02;96548.66;;;1.84;55.69
45129;BME280;35512;56.312;101.728;2023-04-04T06:10:30;96544.00;;;1.67;55.82
45129;BME280;35512;56.312;101.728;2023-04-04T06:13:00;96534.94;;;1.68;56.57
45129;BME280;35512;56.312;101.728;2023-04-04T06:15:30;96542.44;;;1.89;56.35
45129;BME280;35512;56.312;101.728;2023-04-04T06:17:59;96514.97;;;1.79;55.98
45129;BME280;35512;56.312;101.728;2023-04-04T06:20:29;96539.09;;;1.60;56.13
45129;BME280;35512;56.312;101.728;2023-04-04T06:22:57;96516.94;;;1.51;56.57
45129;BME280;35512;56.312;101.728;2023-04-04T06:25:30;96543.84;;;1.49;56.59
45129;BME280;35512;56.312;101.728;2023-04-04T06:27:59;96536.59;;;1.41;56.55
45129;BME280;35512;56.312;101.728;2023-04-04T06:30:29;96519.75;;;1.32;57.03
45129;BME280;35512;56.312;101.728;2023-04-04T06:32:58;96539.75;;;1.29;57.39
45129;BME280;35512;56.312;101.728;2023-04-04T06:35:28;96542.25;;;1.26;57.50
45129;BME280;35512;56.312;101.728;2023-04-04T06:37:59;96542.72;;;1.28;57.52
45129;BME280;35512;56.312;101.728;2023-04-04T06:40:29;96535.25;;;1.52;57.83
45129;BME280;35512;56.312;101.728;2023-04-04T06:42:58;96543.22;;;1.89;57.14
45129;BME280;35512;56.312;101.728;2023-04-04T06:45:33;96536.44;;;2.06;56.91
45129;BME280;35512;56.312;101.728;2023-04-04T06:48:03;96534.50;;;1.97;56.83
45129;BME280;35512;56.312;101.728;2023-04-04T06:50:33;96550.31;;;1.94;57.53
45129;BME280;35512;56.312;101.728;2023-04-04T06:53:04;96535.66;;;2.05;57.66
45129;BME280;35512;56.312;101.728;2023-04-04T06:55:34;96528.38;;;2.19;57.50
45129;BME280;35512;56.312;101.728;2023-04-04T06:58:02;96533.56;;;2.25;57.18
45129;BME280;35512;56.312;101.728;2023-04-04T07:00:32;96540.44;;;2.17;57.04
45129;BME280;35512;56.312;101.728;2023-04-04T07:03:01;96533.88;;;2.23;57.33
45129;BME280;35512;56.312;101.728;2023-04-04T07:05:30;96532.50;;;2.26;57.43
45129;BME280;35512;56.312;101.728;2023-04-04T07:07:59;96538.00;;;2.29;57.39
45129;BME280;35512;56.312;101.728;2023-04-04T07:10:28;96523.66;;;2.16;57.04
45129;BME280;35512;56.312;101.728;2023-04-04T07:12:57;96525.31;;;2.03;57.51
45129;BME280;35512;56.312;101.728;2023-04-04T07:15:26;96539.75;;;2.11;57.88
45129;BME280;35512;56.312;101.728;2023-04-04T07:17:55;96532.94;;;1.96;57.47
45129;BME280;35512;56.312;101.728;2023-04-04T07:20:24;96508.66;;;1.75;58.17
45129;BME280;35512;56.312;101.728;2023-04-04T07:22:55;96529.47;;;1.50;58.44
45129;BME280;35512;56.312;101.728;2023-04-04T07:25:24;96540.63;;;1.39;58.70
45129;BME280;35512;56.312;101.728;2023-04-04T07:27:54;96537.41;;;1.28;58.96
45129;BME280;35512;56.312;101.728;2023-04-04T07:30:39;96536.78;;;1.31;59.61
45129;BME280;35512;56.312;101.728;2023-04-04T07:33:09;96521.13;;;1.43;59.39
45129;BME280;35512;56.312;101.728;2023-04-04T07:35:38;96525.00;;;1.60;59.66
45129;BME280;35512;56.312;101.728;2023-04-04T07:38:07;96538.25;;;1.74;59.66
45129;BME280;35512;56.312;101.728;2023-04-04T07:40:36;96528.06;;;1.90;59.19
45129;BME280;35512;56.312;101.728;2023-04-04T07:43:05;96529.03;;;1.94;59.16
45129;BME280;35512;56.312;101.728;2023-04-04T07:45:34;96522.53;;;1.86;58.28
45129;BME280;35512;56.312;101.728;2023-04-04T07:48:03;96515.50;;;1.90;59.04
45129;BME280;35512;56.312;101.728;2023-04-04T07:50:33;96514.69;;;2.12;58.85
45129;BME280;35512;56.312;101.728;2023-04-04T07:53:02;96516.03;;;2.24;58.01
45129;BME280;35512;56.312;101.728;2023-04-04T07:55:30;96512.84;;;2.13;57.70
45129;BME280;35512;56.312;101.728;2023-04-04T07:57:59;96520.88;;;1.99;57.89
45129;BME280;35512;56.312;101.728;2023-04-04T08:00:29;96519.34;;;1.98;58.25
45129;BME280;35512;56.312;101.728;2023-04-04T08:02:58;96510.84;;;1.96;57.36
45129;BME280;35512;56.312;101.728;2023-04-04T08:05:29;96516.84;;;1.79;57.80
45129;BME280;35512;56.312;101.728;2023-04-04T08:07:58;96516.31;;;1.68;58.00
45129;BME280;35512;56.312;101.728;2023-04-04T08:10:26;96521.63;;;1.68;57.95
45129;BME280;35512;56.312;101.728;2023-04-04T08:12:55;96506.22;;;1.42;58.02
45129;BME280;35512;56.312;101.728;2023-04-04T08:15:24;96518.16;;;1.45;58.37
45129;BME280;35512;56.312;101.728;2023-04-04T08:17:53;96515.41;;;1.36;58.32
45129;BME280;35512;56.312;101.728;2023-04-04T08:20:23;96512.94;;;1.40;59.06
45129;BME280;35512;56.312;101.728;2023-04-04T08:22:52;96507.97;;;1.47;58.90
45129;BME280;35512;56.312;101.728;2023-04-04T08:25:21;96504.66;;;1.41;58.54
45129;BME280;35512;56.312;101.728;2023-04-04T08:27:50;96515.09;;;1.38;58.67
45129;BME280;35512;56.312;101.728;2023-04-04T08:30:19;96520.16;;;1.39;58.93
45129;BME280;35512;56.312;101.728;2023-04-04T08:32:48;96510.50;;;1.29;58.59
45129;BME280;35512;56.312;101.728;2023-04-04T08:35:17;96512.97;;;1.26;59.05
45129;BME280;35512;56.312;101.728;2023-04-04T08:37:46;96507.97;;;1.24;58.70
45129;BME280;35512;56.312;101.728;2023-04-04T08:40:15;96504.59;;;1.18;59.57
45129;BME280;35512;56.312;101.728;2023-04-04T08:42:44;96503.75;;;1.09;58.92
45129;BME280;35512;56.312;101.728;2023-04-04T08:45:16;96500.00;;;0.96;59.54
45129;BME280;35512;56.312;101.728;2023-04-04T08:47:47;96492.75;;;0.88;60.14
45129;BME280;35512;56.312;101.728;2023-04-04T08:50:20;96507.44;;;0.72;60.77
45129;BME280;35512;56.312;101.728;2023-04-04T08:52:51;96508.72;;;0.60;61.19
45129;BME280;35512;56.312;101.728;2023-04-04T08:55:20;96496.41;;;0.50;61.64
45129;BME280;35512;56.312;101.728;2023-04-04T08:57:50;96516.00;;;0.55;62.35
45129;BME280;35512;56.312;101.728;2023-04-04T09:00:19;96506.22;;;0.64;61.87
45129;BME280;35512;56.312;101.728;2023-04-04T09:05:38;96510.06;;;0.99;61.61
45129;BME280;35512;56.312;101.728;2023-04-04T09:08:10;96513.88;;;1.07;61.10
45129;BME280;35512;56.312;101.728;2023-04-04T09:10:40;96515.78;;;1.07;60.78
45129;BME280;35512;56.312;101.728;2023-04-04T09:13:11;96519.44;;;0.97;61.32
45129;BME280;35512;56.312;101.728;2023-04-04T09:15:48;96511.75;;;0.81;61.22
45129;BME280;35512;56.312;101.728;2023-04-04T09:18:18;96512.25;;;0.70;61.77
45129;BME280;35512;56.312;101.728;2023-04-04T09:20:48;96518.16;;;0.53;61.94
45129;BME280;35512;56.312;101.728;2023-04-04T09:23:19;96528.56;;;0.35;62.44
45129;BME280;35512;56.312;101.728;2023-04-04T09:25:53;96518.69;;;0.22;63.15
45129;BME280;35512;56.312;101.728;2023-04-04T09:28:32;96516.00;;;0.08;64.04
45129;BME280;35512;56.312;101.728;2023-04-04T09:31:02;96527.53;;;0.03;64.26
45129;BME280;35512;56.312;101.728;2023-04-04T09:33:33;96524.06;;;0.03;64.93
45129;BME280;35512;56.312;101.728;2023-04-04T09:36:06;96523.38;;;0.11;64.61
45129;BME280;35512;56.312;101.728;2023-04-04T09:38:40;96519.50;;;0.22;65.01
45129;BME280;35512;56.312;101.728;2023-04-04T09:41:17;96522.84;;;0.28;64.42
45129;BME280;35512;56.312;101.728;2023-04-04T09:43:46;96525.41;;;0.33;64.44
45129;BME280;35512;56.312;101.728;2023-04-04T09:46:18;96516.84;;;0.36;64.57
45129;BME280;35512;56.312;101.728;2023-04-04T09:48:49;96508.22;;;0.44;64.32
45129;BME280;35512;56.312;101.728;2023-04-04T09:51:18;96531.72;;;0.51;64.55
45129;BME280;35512;56.312;101.728;2023-04-04T09:53:47;96516.78;;;0.55;64.44
45129;BME280;35512;56.312;101.728;2023-04-04T09:56:16;96517.56;;;0.56;63.89
45129;BME280;35512;56.312;101.728;2023-04-04T09:58:46;96520.81;;;0.53;63.62
45129;BME280;35512;56.312;101.728;2023-04-04T10:01:32;96517.66;;;0.50;64.04
45129;BME280;35512;56.312;101.728;2023-04-04T10:04:03;96506.06;;;0.46;63.92
45129;BME280;35512;56.312;101.728;2023-04-04T10:06:35;96514.50;;;0.48;63.68
45129;BME280;35512;56.312;101.728;2023-04-04T10:09:06;96506.06;;;0.46;63.88
45129;BME280;35512;56.312;101.728;2023-04-04T10:11:35;96517.84;;;0.54;63.61
45129;BME280;35512;56.312;101.728;2023-04-04T10:14:08;96512.34;;;0.50;63.27
45129;BME280;35512;56.312;101.728;2023-04-04T10:16:37;96519.81;;;0.48;63.41
45129;BME280;35512;56.312;101.728;2023-04-04T10:19:07;96518.84;;;0.44;63.03
45129;BME280;35512;56.312;101.728;2023-04-04T10:21:37;96517.53;;;0.42;63.33
45129;BME280;35512;56.312;101.728;2023-04-04T10:24:06;96522.47;;;0.35;63.09
45129;BME280;35512;56.312;101.728;2023-04-04T10:26:38;96523.25;;;0.35;63.58
45129;BME280;35512;56.312;101.728;2023-04-04T10:29:07;96513.22;;;0.32;63.36
45129;BME280;35512;56.312;101.728;2023-04-04T10:31:37;96511.94;;;0.29;63.03
45129;BME280;35512;56.312;101.728;2023-04-04T10:34:25;96508.19;;;0.30;63.12
45129;BME280;35512;56.312;101.728;2023-04-04T10:37:08;96503.47;;;0.27;63.23
45129;BME280;35512;56.312;101.728;2023-04-04T10:39:52;96512.22;;;0.28;63.43
45129;BME280;35512;56.312;101.728;2023-04-04T10:42:25;96508.50;;;0.29;63.48
45129;BME280;35512;56.312;101.728;2023-04-04T10:45:00;96489.47;;;0.22;63.26
45129;BME280;35512;56.312;101.728;2023-04-04T10:47:46;96501.91;;;0.26;63.14
45129;BME280;35512;56.312;101.728;2023-04-04T10:50:15;96504.56;;;0.26;62.85
45129;BME280;35512;56.312;101.728;2023-04-04T10:52:44;96504.84;;;0.25;62.50
45129;BME280;35512;56.312;101.728;2023-04-04T10:55:14;96503.28;;;0.24;62.92
45129;BME280;35512;56.312;101.728;2023-04-04T10:57:46;96497.56;;;0.16;62.72
45129;BME280;35512;56.312;101.728;2023-04-04T11:00:20;96509.84;;;0.12;63.26
45129;BME280;35512;56.312;101.728;2023-04-04T11:08:02;96509.72;;;0.04;63.47
45129;BME280;35512;56.312;101.728;2023-04-04T11:10:42;96502.56;;;0.04;63.37
45129;BME280;35512;56.312;101.728;2023-04-04T11:13:20;96510.88;;;-0.03;63.57
45129;BME280;35512;56.312;101.728;2023-04-04T11:15:57;96501.13;;;-0.07;63.49
45129;BME280;35512;56.312;101.728;2023-04-04T11:18:47;96500.66;;;-0.09;63.97
45129;BME280;35512;56.312;101.728;2023-04-04T11:21:20;96502.88;;;-0.17;63.89
45129;BME280;35512;56.312;101.728;2023-04-04T11:29:02;96502.09;;;-0.17;64.12
45129;BME280;35512;56.312;101.728;2023-04-04T11:31:43;96504.81;;;-0.22;64.34
45129;BME280;35512;56.312;101.728;2023-04-04T11:34:29;96503.34;;;-0.28;63.74
45129;BME280;35512;56.312;101.728;2023-04-04T11:37:14;96509.66;;;-0.24;63.81
45129;BME280;35512;56.312;101.728;2023-04-04T11:39:48;96499.88;;;-0.29;63.67
45129;BME280;35512;56.312;101.728;2023-04-04T11:42:33;96508.94;;;-0.30;64.17
45129;BME280;35512;56.312;101.728;2023-04-04T11:45:06;96505.56;;;-0.36;64.48
45129;BME280;35512;56.312;101.728;2023-04-04T11:47:38;96505.38;;;-0.39;64.37
45129;BME280;35512;56.312;101.728;2023-04-04T11:50:08;96497.19;;;-0.43;64.66
45129;BME280;35512;56.312;101.728;2023-04-04T11:52:39;96504.06;;;-0.42;64.30
45129;BME280;35512;56.312;101.728;2023-04-04T11:55:17;96493.53;;;-0.47;64.63
45129;BME280;35512;56.312;101.728;2023-04-04T11:57:47;96503.16;;;-0.51;65.27
45129;BME280;35512;56.312;101.728;2023-04-04T12:00:32;96504.50;;;-0.54;64.99
45129;BME280;35512;56.312;101.728;2023-04-04T12:03:10;96497.34;;;-0.53;65.16
45129;BME280;35512;56.312;101.728;2023-04-04T12:05:41;96494.47;;;-0.57;65.27
45129;BME280;35512;56.312;101.728;2023-04-04T12:08:12;96506.75;;;-0.61;65.48
45129;BME280;35512;56.312;101.728;2023-04-04T12:10:41;96510.47;;;-0.62;65.00
45129;BME280;35512;56.312;101.728;2023-04-04T12:13:11;96507.88;;;-0.67;66.08
45129;BME280;35512;56.312;101.728;2023-04-04T12:15:41;96493.41;;;-0.75;66.04
45129;BME280;35512;56.312;101.728;2023-04-04T12:18:20;96502.22;;;-0.79;66.11
45129;BME280;35512;56.312;101.728;2023-04-04T12:20:52;96502.50;;;-0.81;66.06
45129;BME280;35512;56.312;101.728;2023-04-04T12:23:21;96511.53;;;-0.82;66.64
45129;BME280;35512;56.312;101.728;2023-04-04T12:25:50;96513.75;;;-0.89;66.80
45129;BME280;35512;56.312;101.728;2023-04-04T12:28:22;96506.88;;;-0.90;66.35
45129;BME280;35512;56.312;101.728;2023-04-04T12:30:53;96515.41;;;-0.93;66.49
45129;BME280;35512;56.312;101.728;2023-04-04T12:33:22;96513.03;;;-0.95;67.08
45129;BME280;35512;56.312;101.728;2023-04-04T12:35:52;96509.81;;;-0.92;66.83
45129;BME280;35512;56.312;101.728;2023-04-04T12:38:22;96514.03;;;-0.91;67.16
45129;BME280;35512;56.312;101.728;2023-04-04T12:40:52;96515.03;;;-0.87;66.54
45129;BME280;35512;56.312;101.728;2023-04-04T12:43:21;96504.72;;;-0.88;66.89
45129;BME280;35512;56.312;101.728;2023-04-04T12:45:49;96509.75;;;-0.87;66.42
45129;BME280;35512;56.312;101.728;2023-04-04T12:48:26;96500.78;;;-0.91;67.27
45129;BME280;35512;56.312;101.728;2023-04-04T12:50:57;96505.84;;;-0.94;66.69
45129;BME280;35512;56.312;101.728;2023-04-04T12:53:27;96506.72;;;-0.99;66.65
45129;BME280;35512;56.312;101.728;2023-04-04T12:56:02;96517.31;;;-0.99;67.17
45129;BME280;35512;56.312;101.728;2023-04-04T12:58:32;96500.34;;;-0.98;67.02
45129;BME280;35512;56.312;101.728;2023-04-04T13:01:23;96505.44;;;-1.02;67.03
45129;BME280;35512;56.312;101.728;2023-04-04T13:03:52;96509.09;;;-0.97;67.45
45129;BME280;35512;56.312;101.728;2023-04-04T13:06:22;96518.91;;;-0.98;67.11
45129;BME280;35512;56.312;101.728;2023-04-04T13:08:56;96524.13;;;-0.93;67.43
45129;BME280;35512;56.312;101.728;2023-04-04T13:11:25;96514.25;;;-0.87;66.80
45129;BME280;35512;56.312;101.728;2023-04-04T13:14:14;96519.78;;;-0.83;66.86
45129;BME280;35512;56.312;101.728;2023-04-04T13:16:43;96523.53;;;-0.84;66.80
45129;BME280;35512;56.312;101.728;2023-04-04T13:19:12;96530.09;;;-0.82;66.65
45129;BME280;35512;56.312;101.728;2023-04-04T13:21:41;96534.97;;;-0.89;67.03
45129;BME280;35512;56.312;101.728;2023-04-04T13:24:10;96530.88;;;-1.00;66.83
45129;BME280;35512;56.312;101.728;2023-04-04T13:26:38;96524.09;;;-1.12;67.36